sensor_id;sensor_type;location;lat;lon;timestamp;P1;durP1;ratioP1;P2;durP2;ratioP2
10416;SDS011;62605;49.432;8.680;2023-04-29T00:00:34;5.00;;;2.80;;
10416;SDS011;62605;49.432;8.680;2023-04-29T00:03:01;4.53;;;2.53;;
10416;SDS011;62605;49.432;8.680;2023-04-29T00:05:28;2.77;;;2.40;;
10416;SDS011;62605;49.432;8.680;2023-04-29T00:07:55;10.13;;;3.00;;
10416;SDS011;62605;49.432;8.680;2023-04-29T00:10:22;4.73;;;3.20;;
10416;SDS011;62605;49.432;8.680;2023-04-29T00:12:51;2.70;;;2.40;;
10416;SDS011;62605;49.432;8.680;2023-04-29T00:15:18;2.53;;;2.33;;
10416;SDS011;62605;49.432;8.680;2023-04-29T00:17:45;7.63;;;3.20;;
10416;SDS011;62605;49.432;8.680;2023-04-29T00:20:12;3.00;;;2.53;;
10416;SDS011;62605;49.432;8.680;2023-04-29T00:22:39;4.80;;;3.27;;
10416;SDS011;62605;49.432;8.680;2023-04-29T00:25:07;4.13;;;3.33;;
10416;SDS011;62605;49.432;8.680;2023-04-29T00:27:35;6.70;;;3.07;;
10416;SDS011;62605;49.432;8.680;2023-04-29T00:30:05;4.00;;;2.90;;
10416;SDS011;62605;49.432;8.680;2023-04-29T00:32:33;6.10;;;3.17;;
10416;SDS011;62605;49.432;8.680;2023-04-29T00:35:00;3.40;;;3.03;;
10416;SDS011;62605;49.432;8.680;2023-04-29T00:37:27;5.90;;;3.03;;
10416;SDS011;62605;49.432;8.680;2023-04-29T00:39:54;3.50;;;2.93;;
10416;SDS011;62605;49.432;8.680;2023-04-29T00:42:21;4.00;;;3.00;;
10416;SDS011;62605;49.432;8.680;2023-04-29T00:44:48;5.13;;;3.40;;
10416;SDS011;62605;49.432;8.680;2023-04-29T00:47:17;4.33;;;3.23;;
10416;SDS011;62605;49.432;8.680;2023-04-29T00:49:44;7.43;;;3.87;;
10416;SDS011;62605;49.432;8.680;2023-04-29T00:52:12;6.37;;;3.90;;
10416;SDS011;62605;49.432;8.680;2023-04-29T00:54:40;8.13;;;4.67;;
10416;SDS011;62605;49.432;8.680;2023-04-29T00:57:07;13.75;;;5.25;;
10416;SDS011;62605;49.432;8.680;2023-04-29T00:59:35;12.10;;;4.70;;
10416;SDS011;62605;49.432;8.680;2023-04-29T01:02:03;9.17;;;4.80;;
10416;SDS011;62605;49.432;8.680;2023-04-29T01:04:32;6.68;;;4.72;;
10416;SDS011;62605;49.432;8.680;2023-04-29T01:07:00;11.77;;;4.20;;
10416;SDS011;62605;49.432;8.680;2023-04-29T01:09:39;15.43;;;4.43;;
10416;SDS011;62605;49.432;8.680;2023-04-29T01:12:18;8.20;;;4.77;;
10416;SDS011;62605;49.432;8.680;2023-04-29T01:14:51;12.27;;;6.18;;
10416;SDS011;62605;49.432;8.680;2023-04-29T01:17:26;14.03;;;5.60;;
10416;SDS011;62605;49.432;8.680;2023-04-29T01:20:03;9.30;;;5.60;;
10416;SDS011;62605;49.432;8.680;2023-04-29T01:22:32;22.43;;;6.27;;
10416;SDS011;62605;49.432;8.680;2023-04-29T01:25:00;11.30;;;5.87;;
10416;SDS011;62605;49.432;8.680;2023-04-29T01:27:28;12.15;;;5.68;;
10416;SDS011;62605;49.432;8.680;2023-04-29T01:30:00;13.07;;;6.20;;
10416;SDS011;62605;49.432;8.680;2023-04-29T01:32:36;14.77;;;5.33;;
10416;SDS011;62605;49.432;8.680;2023-04-29T01:35:10;11.23;;;5.87;;
10416;SDS011;62605;49.432;8.680;2023-04-29T01:37:47;13.53;;;5.93;;
10416;SDS011;62605;49.432;8.680;2023-04-29T01:40:24;11.03;;;5.87;;
10416;SDS011;62605;49.432;8.680;2023-04-29T01:42:55;11.00;;;6.00;;
10416;SDS011;62605;49.432;8.680;2023-04-29T01:45:27;16.40;;;6.30;;
10416;SDS011;62605;49.432;8.680;2023-04-29T01:47:56;13.38;;;6.20;;
10416;SDS011;62605;49.432;8.680;2023-04-29T01:50:24;14.90;;;5.80;;
10416;SDS011;62605;49.432;8.680;2023-04-29T01:52:51;11.05;;;5.95;;
10416;SDS011;62605;49.432;8.680;2023-04-29T01:55:18;9.57;;;5.77;;
10416;SDS011;62605;49.432;8.680;2023-04-29T01:57:47;13.88;;;5.93;;
10416;SDS011;62605;49.432;8.680;2023-04-29T02:00:14;10.57;;;6.27;;
10416;SDS011;62605;49.432;8.680;2023-04-29T02:02:41;10.65;;;5.75;;
10416;SDS011;62605;49.432;8.680;2023-04-29T02:05:08;12.17;;;6.03;;
10416;SDS011;62605;49.432;8.680;2023-04-29T02:07:35;13.65;;;6.55;;
10416;SDS011;62605;49.432;8.680;2023-04-29T02:10:02;10.30;;;5.75;;
10416;SDS011;62605;49.432;8.680;2023-04-29T02:12:30;9.93;;;6.35;;
10416;SDS011;62605;49.432;8.680;2023-04-29T02:14:59;10.70;;;6.57;;
10416;SDS011;62605;49.432;8.680;2023-04-29T02:17:26;9.17;;;5.57;;
10416;SDS011;62605;49.432;8.680;2023-04-29T02:19:52;10.83;;;5.50;;
10416;SDS011;62605;49.432;8.680;2023-04-29T02:22:20;10.18;;;6.38;;
10416;SDS011;62605;49.432;8.680;2023-04-29T02:24:47;12.73;;;6.20;;
10416;SDS011;62605;49.432;8.680;2023-04-29T02:27:14;14.97;;;6.23;;
10416;SDS011;62605;49.432;8.680;2023-04-29T02:29:42;12.07;;;6.53;;
10416;SDS011;62605;49.432;8.680;2023-04-29T02:32:10;9.00;;;6.13;;
10416;SDS011;62605;49.432;8.680;2023-04-29T02:34:39;12.07;;;6.60;;
10416;SDS011;62605;49.432;8.680;2023-04-29T02:37:06;16.73;;;7.20;;
10416;SDS011;62605;49.432;8.680;2023-04-29T02:39:33;9.70;;;6.73;;
10416;SDS011;62605;49.432;8.680;2023-04-29T02:41:59;12.90;;;6.33;;
10416;SDS011;62605;49.432;8.680;2023-04-29T02:44:27;10.52;;;6.20;;
10416;SDS011;62605;49.432;8.680;2023-04-29T02:46:54;10.83;;;6.57;;
10416;SDS011;62605;49.432;8.680;2023-04-29T02:49:23;9.23;;;6.50;;
10416;SDS011;62605;49.432;8.680;2023-04-29T02:51:50;11.87;;;5.87;;
10416;SDS011;62605;49.432;8.680;2023-04-29T02:54:17;7.87;;;5.47;;
10416;SDS011;62605;49.432;8.680;2023-04-29T02:56:44;8.40;;;5.50;;
10416;SDS011;62605;49.432;8.680;2023-04-29T02:59:11;6.90;;;5.33;;
10416;SDS011;62605;49.432;8.680;2023-04-29T03:01:38;7.57;;;5.30;;
10416;SDS011;62605;49.432;8.680;2023-04-29T03:04:05;8.33;;;4.93;;
10416;SDS011;62605;49.432;8.680;2023-04-29T03:06:34;5.63;;;4.03;;
10416;SDS011;62605;49.432;8.680;2023-04-29T03:09:01;8.50;;;5.20;;
10416;SDS011;62605;49.432;8.680;2023-04-29T03:11:28;7.20;;;5.00;;
10416;SDS011;62605;49.432;8.680;2023-04-29T03:13:55;6.30;;;4.27;;
10416;SDS011;62605;49.432;8.680;2023-04-29T03:16:23;7.73;;;4.80;;
10416;SDS011;62605;49.432;8.680;2023-04-29T03:18:50;7.43;;;4.77;;
10416;SDS011;62605;49.432;8.680;2023-04-29T03:21:17;6.87;;;5.10;;
10416;SDS011;62605;49.432;8.680;2023-04-29T03:23:45;7.47;;;4.80;;
10416;SDS011;62605;49.432;8.680;2023-04-29T03:26:13;7.20;;;4.87;;
10416;SDS011;62605;49.432;8.680;2023-04-29T03:28:40;7.73;;;5.00;;
10416;SDS011;62605;49.432;8.680;2023-04-29T03:31:07;5.43;;;4.30;;
10416;SDS011;62605;49.432;8.680;2023-04-29T03:33:36;6.83;;;4.73;;
10416;SDS011;62605;49.432;8.680;2023-04-29T03:36:03;5.57;;;4.23;;
10416;SDS011;62605;49.432;8.680;2023-04-29T03:38:30;6.07;;;4.27;;
10416;SDS011;62605;49.432;8.680;2023-04-29T03:40:58;6.20;;;4.07;;
10416;SDS011;62605;49.432;8.680;2023-04-29T03:43:25;4.70;;;3.80;;
10416;SDS011;62605;49.432;8.680;2023-04-29T03:45:52;4.57;;;3.23;;
10416;SDS011;62605;49.432;8.680;2023-04-29T03:48:19;4.10;;;3.33;;
10416;SDS011;62605;49.432;8.680;2023-04-29T03:50:46;3.33;;;3.03;;
10416;SDS011;62605;49.432;8.680;2023-04-29T03:53:13;3.33;;;2.97;;
10416;SDS011;62605;49.432;8.680;2023-04-29T03:55:40;3.10;;;2.60;;
10416;SDS011;62605;49.432;8.680;2023-04-29T03:58:09;3.03;;;2.70;;
10416;SDS011;62605;49.432;8.680;2023-04-29T04:00:36;4.87;;;2.60;;
10416;SDS011;62605;49.432;8.680;2023-04-29T04:03:03;5.00;;;2.57;;
10416;SDS011;62605;49.432;8.680;2023-04-29T04:05:30;2.33;;;2.13;;
10416;SDS011;62605;49.432;8.680;2023-04-29T04:07:57;3.63;;;2.80;;
10416;SDS011;62605;49.432;8.680;2023-04-29T04:10:25;3.67;;;2.20;;
10416;SDS011;62605;49.432;8.680;2023-04-29T04:12:52;3.40;;;2.60;;
10416;SDS011;62605;49.432;8.680;2023-04-29T04:15:20;3.67;;;2.93;;
10416;SDS011;62605;49.432;8.680;2023-04-29T04:17:47;5.23;;;2.70;;
10416;SDS011;62605;49.432;8.680;2023-04-29T04:20:14;3.23;;;2.50;;
10416;SDS011;62605;49.432;8.680;2023-04-29T04:22:41;3.63;;;2.83;;
10416;SDS011;62605;49.432;8.680;2023-04-29T04:25:09;3.90;;;3.17;;
10416;SDS011;62605;49.432;8.680;2023-04-29T04:27:36;4.70;;;3.33;;
10416;SDS011;62605;49.432;8.680;2023-04-29T04:30:04;2.90;;;2.60;;
10416;SDS011;62605;49.432;8.680;2023-04-29T04:32:33;3.10;;;2.77;;
10416;SDS011;62605;49.432;8.680;2023-04-29T04:35:00;2.30;;;2.10;;
10416;SDS011;62605;49.432;8.680;2023-04-29T04:37:28;3.47;;;2.20;;
10416;SDS011;62605;49.432;8.680;2023-04-29T04:39:56;3.13;;;2.27;;
10416;SDS011;62605;49.432;8.680;2023-04-29T04:42:23;4.17;;;2.07;;
10416;SDS011;62605;49.432;8.680;2023-04-29T04:44:51;1.70;;;1.60;;
10416;SDS011;62605;49.432;8.680;2023-04-29T04:47:19;1.70;;;1.60;;
10416;SDS011;62605;49.432;8.680;2023-04-29T04:49:49;1.67;;;1.57;;
10416;SDS011;62605;49.432;8.680;2023-04-29T04:52:18;1.53;;;1.30;;
10416;SDS011;62605;49.432;8.680;2023-04-29T04:54:46;1.83;;;1.43;;
10416;SDS011;62605;49.432;8.680;2023-04-29T04:57:13;1.43;;;1.33;;
10416;SDS011;62605;49.432;8.680;2023-04-29T04:59:40;2.30;;;1.30;;
10416;SDS011;62605;49.432;8.680;2023-04-29T05:02:07;2.23;;;1.27;;
10416;SDS011;62605;49.432;8.680;2023-04-29T05:04:34;1.27;;;1.03;;
10416;SDS011;62605;49.432;8.680;2023-04-29T05:07:03;1.53;;;1.00;;
10416;SDS011;62605;49.432;8.680;2023-04-29T05:09:31;1.23;;;1.13;;
10416;SDS011;62605;49.432;8.680;2023-04-29T05:11:58;2.77;;;1.17;;
10416;SDS011;62605;49.432;8.680;2023-04-29T05:14:25;1.10;;;1.10;;
10416;SDS011;62605;49.432;8.680;2023-04-29T05:16:57;1.40;;;1.20;;
10416;SDS011;62605;49.432;8.680;2023-04-29T05:19:24;1.93;;;1.20;;
10416;SDS011;62605;49.432;8.680;2023-04-29T05:21:51;1.10;;;1.10;;
10416;SDS011;62605;49.432;8.680;2023-04-29T05:24:19;1.10;;;1.10;;
10416;SDS011;62605;49.432;8.680;2023-04-29T05:26:46;2.47;;;1.30;;
10416;SDS011;62605;49.432;8.680;2023-04-29T05:29:15;1.00;;;1.00;;
10416;SDS011;62605;49.432;8.680;2023-04-29T05:31:43;1.20;;;1.10;;
10416;SDS011;62605;49.432;8.680;2023-04-29T05:34:10;2.80;;;1.03;;
10416;SDS011;62605;49.432;8.680;2023-04-29T05:36:37;1.30;;;1.20;;
10416;SDS011;62605;49.432;8.680;2023-04-29T05:39:04;2.63;;;1.20;;
10416;SDS011;62605;49.432;8.680;2023-04-29T05:41:33;1.30;;;1.20;;
10416;SDS011;62605;49.432;8.680;2023-04-29T05:44:00;1.50;;;1.40;;
10416;SDS011;62605;49.432;8.680;2023-04-29T05:46:27;2.23;;;1.20;;
10416;SDS011;62605;49.432;8.680;2023-04-29T05:48:53;1.40;;;1.30;;
10416;SDS011;62605;49.432;8.680;2023-04-29T05:51:21;1.07;;;0.97;;
10416;SDS011;62605;49.432;8.680;2023-04-29T05:53:48;0.80;;;0.80;;
10416;SDS011;62605;49.432;8.680;2023-04-29T05:56:15;1.30;;;1.17;;
10416;SDS011;62605;49.432;8.680;2023-04-29T05:58:44;1.10;;;1.00;;
10416;SDS011;62605;49.432;8.680;2023-04-29T06:01:11;1.30;;;1.20;;
10416;SDS011;62605;49.432;8.680;2023-04-29T06:03:38;1.33;;;1.00;;
10416;SDS011;62605;49.432;8.680;2023-04-29T06:06:08;3.70;;;1.10;;
10416;SDS011;62605;49.432;8.680;2023-04-29T06:08:43;1.17;;;1.07;;
10416;SDS011;62605;49.432;8.680;2023-04-29T06:11:12;1.30;;;1.20;;
10416;SDS011;62605;49.432;8.680;2023-04-29T06:13:39;2.07;;;1.50;;
10416;SDS011;62605;49.432;8.680;2023-04-29T06:16:08;1.80;;;1.50;;
10416;SDS011;62605;49.432;8.680;2023-04-29T06:18:36;1.43;;;1.33;;
10416;SDS011;62605;49.432;8.680;2023-04-29T06:21:03;1.45;;;1.35;;
10416;SDS011;62605;49.432;8.680;2023-04-29T06:23:30;1.57;;;1.43;;
10416;SDS011;62605;49.432;8.680;2023-04-29T06:25:57;2.13;;;1.60;;
10416;SDS011;62605;49.432;8.680;2023-04-29T06:28:24;1.50;;;1.40;;
10416;SDS011;62605;49.432;8.680;2023-04-29T06:30:52;3.63;;;1.80;;
10416;SDS011;62605;49.432;8.680;2023-04-29T06:33:20;1.97;;;1.60;;
10416;SDS011;62605;49.432;8.680;2023-04-29T06:35:47;2.03;;;1.60;;
10416;SDS011;62605;49.432;8.680;2023-04-29T06:38:14;2.27;;;1.70;;
10416;SDS011;62605;49.432;8.680;2023-04-29T06:40:41;2.37;;;1.77;;
10416;SDS011;62605;49.432;8.680;2023-04-29T06:43:08;2.27;;;2.00;;
10416;SDS011;62605;49.432;8.680;2023-04-29T06:45:35;3.13;;;2.40;;
10416;SDS011;62605;49.432;8.680;2023-04-29T06:48:02;4.03;;;2.90;;
10416;SDS011;62605;49.432;8.680;2023-04-29T06:50:30;4.03;;;3.13;;
10416;SDS011;62605;49.432;8.680;2023-04-29T06:52:58;6.87;;;4.33;;
10416;SDS011;62605;49.432;8.680;2023-04-29T06:55:24;6.47;;;4.33;;
10416;SDS011;62605;49.432;8.680;2023-04-29T06:57:51;5.07;;;3.73;;
10416;SDS011;62605;49.432;8.680;2023-04-29T07:00:19;5.23;;;4.03;;
10416;SDS011;62605;49.432;8.680;2023-04-29T07:02:46;5.77;;;4.20;;
10416;SDS011;62605;49.432;8.680;2023-04-29T07:05:14;6.10;;;4.57;;
10416;SDS011;62605;49.432;8.680;2023-04-29T07:07:42;5.97;;;4.03;;
10416;SDS011;62605;49.432;8.680;2023-04-29T07:10:09;4.03;;;3.63;;
10416;SDS011;62605;49.432;8.680;2023-04-29T07:12:36;7.70;;;4.27;;
10416;SDS011;62605;49.432;8.680;2023-04-29T07:15:04;9.13;;;4.70;;
10416;SDS011;62605;49.432;8.680;2023-04-29T07:17:32;5.60;;;4.37;;
10416;SDS011;62605;49.432;8.680;2023-04-29T07:20:00;6.13;;;4.00;;
10416;SDS011;62605;49.432;8.680;2023-04-29T07:22:28;8.07;;;4.37;;
10416;SDS011;62605;49.432;8.680;2023-04-29T07:24:57;6.30;;;4.80;;
10416;SDS011;62605;49.432;8.680;2023-04-29T07:27:24;7.20;;;4.87;;
10416;SDS011;62605;49.432;8.680;2023-04-29T07:29:52;7.40;;;5.00;;
10416;SDS011;62605;49.432;8.680;2023-04-29T07:32:20;8.48;;;4.75;;
10416;SDS011;62605;49.432;8.680;2023-04-29T07:34:52;6.68;;;4.05;;
10416;SDS011;62605;49.432;8.680;2023-04-29T07:37:19;6.80;;;4.68;;
10416;SDS011;62605;49.432;8.680;2023-04-29T07:39:46;8.88;;;4.95;;
10416;SDS011;62605;49.432;8.680;2023-04-29T07:42:14;9.05;;;5.35;;
10416;SDS011;62605;49.432;8.680;2023-04-29T07:44:42;7.80;;;4.75;;
10416;SDS011;62605;49.432;8.680;2023-04-29T07:47:09;5.53;;;4.53;;
10416;SDS011;62605;49.432;8.680;2023-04-29T07:49:37;5.90;;;4.53;;
10416;SDS011;62605;49.432;8.680;2023-04-29T07:52:05;8.70;;;5.18;;
10416;SDS011;62605;49.432;8.680;2023-04-29T07:54:34;8.68;;;4.63;;
10416;SDS011;62605;49.432;8.680;2023-04-29T07:57:01;8.27;;;4.90;;
10416;SDS011;62605;49.432;8.680;2023-04-29T07:59:30;8.65;;;5.18;;
10416;SDS011;62605;49.432;8.680;2023-04-29T08:01:57;8.23;;;4.80;;
10416;SDS011;62605;49.432;8.680;2023-04-29T08:04:25;8.88;;;4.78;;
10416;SDS011;62605;49.432;8.680;2023-04-29T08:06:52;8.13;;;5.18;;
10416;SDS011;62605;49.432;8.680;2023-04-29T08:09:20;7.00;;;4.78;;
10416;SDS011;62605;49.432;8.680;2023-04-29T08:11:47;9.07;;;4.73;;
10416;SDS011;62605;49.432;8.680;2023-04-29T08:14:15;8.68;;;5.15;;
10416;SDS011;62605;49.432;8.680;2023-04-29T08:16:44;9.60;;;5.63;;
10416;SDS011;62605;49.432;8.680;2023-04-29T08:19:12;8.60;;;4.95;;
10416;SDS011;62605;49.432;8.680;2023-04-29T08:21:39;7.25;;;4.72;;
10416;SDS011;62605;49.432;8.680;2023-04-29T08:24:07;9.30;;;4.70;;
10416;SDS011;62605;49.432;8.680;2023-04-29T08:26:34;7.72;;;4.30;;
10416;SDS011;62605;49.432;8.680;2023-04-29T08:29:02;7.95;;;4.40;;
10416;SDS011;62605;49.432;8.680;2023-04-29T08:31:29;6.10;;;4.37;;
10416;SDS011;62605;49.432;8.680;2023-04-29T08:33:59;8.52;;;4.95;;
10416;SDS011;62605;49.432;8.680;2023-04-29T08:36:27;6.80;;;4.53;;
10416;SDS011;62605;49.432;8.680;2023-04-29T08:38:54;8.60;;;4.83;;
10416;SDS011;62605;49.432;8.680;2023-04-29T08:41:22;7.40;;;4.33;;
10416;SDS011;62605;49.432;8.680;2023-04-29T08:43:49;6.43;;;4.40;;
10416;SDS011;62605;49.432;8.680;2023-04-29T08:46:16;6.18;;;4.18;;
10416;SDS011;62605;49.432;8.680;2023-04-29T08:48:44;6.65;;;4.68;;
10416;SDS011;62605;49.432;8.680;2023-04-29T08:51:13;7.40;;;4.45;;
10416;SDS011;62605;49.432;8.680;2023-04-29T08:53:40;7.38;;;4.90;;
10416;SDS011;62605;49.432;8.680;2023-04-29T08:56:08;6.88;;;4.70;;
10416;SDS011;62605;49.432;8.680;2023-04-29T08:58:41;7.97;;;4.55;;
10416;SDS011;62605;49.432;8.680;2023-04-29T09:01:09;7.50;;;4.45;;
10416;SDS011;62605;49.432;8.680;2023-04-29T09:03:39;7.05;;;4.55;;
10416;SDS011;62605;49.432;8.680;2023-04-29T09:06:10;8.35;;;4.45;;
10416;SDS011;62605;49.432;8.680;2023-04-29T09:08:40;7.60;;;4.82;;
10416;SDS011;62605;49.432;8.680;2023-04-29T09:11:07;7.85;;;4.38;;
10416;SDS011;62605;49.432;8.680;2023-04-29T09:13:35;8.32;;;3.72;;
10416;SDS011;62605;49.432;8.680;2023-04-29T09:16:02;6.50;;;4.22;;
10416;SDS011;62605;49.432;8.680;2023-04-29T09:18:43;5.43;;;4.35;;
10416;SDS011;62605;49.432;8.680;2023-04-29T09:21:15;7.97;;;4.00;;
10416;SDS011;62605;49.432;8.680;2023-04-29T09:23:44;6.30;;;4.75;;
10416;SDS011;62605;49.432;8.680;2023-04-29T09:26:12;6.53;;;4.75;;
10416;SDS011;62605;49.432;8.680;2023-04-29T09:28:39;7.68;;;4.22;;
10416;SDS011;62605;49.432;8.680;2023-04-29T09:31:10;5.03;;;3.65;;
10416;SDS011;62605;49.432;8.680;2023-04-29T09:36:35;6.88;;;4.22;;
10416;SDS011;62605;49.432;8.680;2023-04-29T09:39:08;6.70;;;4.25;;
10416;SDS011;62605;49.432;8.680;2023-04-29T09:41:40;7.38;;;3.95;;
10416;SDS011;62605;49.432;8.680;2023-04-29T09:44:09;5.93;;;4.03;;
10416;SDS011;62605;49.432;8.680;2023-04-29T09:46:36;5.97;;;4.10;;
10416;SDS011;62605;49.432;8.680;2023-04-29T09:49:04;7.90;;;3.63;;
10416;SDS011;62605;49.432;8.680;2023-04-29T09:51:53;4.68;;;3.70;;
10416;SDS011;62605;49.432;8.680;2023-04-29T09:54:23;5.65;;;3.28;;
10416;SDS011;62605;49.432;8.680;2023-04-29T09:56:52;6.50;;;3.80;;
10416;SDS011;62605;49.432;8.680;2023-04-29T09:59:20;4.93;;;3.08;;
10416;SDS011;62605;49.432;8.680;2023-04-29T10:01:47;4.53;;;3.05;;
10416;SDS011;62605;49.432;8.680;2023-04-29T10:04:16;3.85;;;2.97;;
10416;SDS011;62605;49.432;8.680;2023-04-29T10:06:44;4.35;;;3.05;;
10416;SDS011;62605;49.432;8.680;2023-04-29T10:09:14;3.55;;;3.15;;
10416;SDS011;62605;49.432;8.680;2023-04-29T10:11:44;5.35;;;3.33;;
10416;SDS011;62605;49.432;8.680;2023-04-29T10:14:13;3.65;;;2.75;;
10416;SDS011;62605;49.432;8.680;2023-04-29T10:16:45;4.38;;;3.15;;
10416;SDS011;62605;49.432;8.680;2023-04-29T10:19:24;3.55;;;3.13;;
10416;SDS011;62605;49.432;8.680;2023-04-29T10:21:52;3.30;;;2.33;;
10416;SDS011;62605;49.432;8.680;2023-04-29T10:24:23;3.90;;;2.65;;
10416;SDS011;62605;49.432;8.680;2023-04-29T10:26:53;4.88;;;3.03;;
10416;SDS011;62605;49.432;8.680;2023-04-29T10:29:22;3.08;;;2.38;;
10416;SDS011;62605;49.432;8.680;2023-04-29T10:31:53;4.32;;;2.90;;
10416;SDS011;62605;49.432;8.680;2023-04-29T10:34:24;4.10;;;2.75;;
10416;SDS011;62605;49.432;8.680;2023-04-29T10:36:57;5.13;;;2.78;;
10416;SDS011;62605;49.432;8.680;2023-04-29T10:39:26;3.75;;;2.78;;
10416;SDS011;62605;49.432;8.680;2023-04-29T10:42:02;5.25;;;3.53;;
10416;SDS011;62605;49.432;8.680;2023-04-29T10:44:31;5.28;;;3.35;;
10416;SDS011;62605;49.432;8.680;2023-04-29T10:52:28;5.60;;;3.20;;
10416;SDS011;62605;49.432;8.680;2023-04-29T10:55:00;4.05;;;2.88;;
10416;SDS011;62605;49.432;8.680;2023-04-29T10:57:30;4.50;;;3.08;;
10416;SDS011;62605;49.432;8.680;2023-04-29T10:59:57;8.95;;;3.35;;
10416;SDS011;62605;49.432;8.680;2023-04-29T11:02:24;3.70;;;2.60;;
10416;SDS011;62605;49.432;8.680;2023-04-29T11:05:08;4.03;;;2.40;;
10416;SDS011;62605;49.432;8.680;2023-04-29T11:07:36;2.53;;;1.98;;
10416;SDS011;62605;49.432;8.680;2023-04-29T11:10:03;3.58;;;1.70;;
10416;SDS011;62605;49.432;8.680;2023-04-29T11:12:33;2.00;;;1.80;;
10416;SDS011;62605;49.432;8.680;2023-04-29T11:15:00;2.45;;;2.05;;
10416;SDS011;62605;49.432;8.680;2023-04-29T11:17:33;3.70;;;2.38;;
10416;SDS011;62605;49.432;8.680;2023-04-29T11:20:02;2.65;;;2.05;;
10416;SDS011;62605;49.432;8.680;2023-04-29T11:22:29;2.88;;;2.22;;
10416;SDS011;62605;49.432;8.680;2023-04-29T11:24:58;6.03;;;2.78;;
10416;SDS011;62605;49.432;8.680;2023-04-29T11:27:28;3.78;;;2.67;;
10416;SDS011;62605;49.432;8.680;2023-04-29T11:29:57;3.42;;;2.40;;
10416;SDS011;62605;49.432;8.680;2023-04-29T11:32:26;3.90;;;2.58;;
10416;SDS011;62605;49.432;8.680;2023-04-29T11:34:54;3.20;;;2.55;;
10416;SDS011;62605;49.432;8.680;2023-04-29T11:37:21;3.03;;;2.50;;
10416;SDS011;62605;49.432;8.680;2023-04-29T11:39:49;2.20;;;1.92;;
10416;SDS011;62605;49.432;8.680;2023-04-29T11:42:20;2.75;;;2.10;;
10416;SDS011;62605;49.432;8.680;2023-04-29T11:44:50;2.65;;;2.10;;
10416;SDS011;62605;49.432;8.680;2023-04-29T11:47:20;3.42;;;2.13;;
10416;SDS011;62605;49.432;8.680;2023-04-29T11:49:50;3.00;;;2.42;;
10416;SDS011;62605;49.432;8.680;2023-04-29T11:52:18;2.95;;;2.60;;
10416;SDS011;62605;49.432;8.680;2023-04-29T11:54:45;3.55;;;2.65;;
10416;SDS011;62605;49.432;8.680;2023-04-29T11:57:13;4.03;;;2.90;;
10416;SDS011;62605;49.432;8.680;2023-04-29T11:59:41;4.53;;;2.58;;
10416;SDS011;62605;49.432;8.680;2023-04-29T12:02:10;3.95;;;2.78;;
10416;SDS011;62605;49.432;8.680;2023-04-29T12:04:45;3.38;;;2.28;;
10416;SDS011;62605;49.432;8.680;2023-04-29T12:07:13;3.60;;;2.63;;
10416;SDS011;62605;49.432;8.680;2023-04-29T12:09:41;4.50;;;3.40;;
10416;SDS011;62605;49.432;8.680;2023-04-29T12:12:09;5.13;;;2.70;;
10416;SDS011;62605;49.432;8.680;2023-04-29T12:14:37;4.35;;;2.70;;
10416;SDS011;62605;49.432;8.680;2023-04-29T12:17:05;2.72;;;2.40;;
10416;SDS011;62605;49.432;8.680;2023-04-29T12:19:33;3.63;;;2.38;;
10416;SDS011;62605;49.432;8.680;2023-04-29T12:22:04;3.70;;;2.63;;
10416;SDS011;62605;49.432;8.680;2023-04-29T12:24:32;3.25;;;2.25;;
10416;SDS011;62605;49.432;8.680;2023-04-29T12:27:01;3.20;;;2.60;;
10416;SDS011;62605;49.432;8.680;2023-04-29T12:29:28;3.35;;;2.42;;
10416;SDS011;62605;49.432;8.680;2023-04-29T12:31:57;2.22;;;1.75;;
10416;SDS011;62605;49.432;8.680;2023-04-29T12:34:25;5.28;;;2.20;;
10416;SDS011;62605;49.432;8.680;2023-04-29T12:36:53;2.78;;;2.53;;
10416;SDS011;62605;49.432;8.680;2023-04-29T12:39:23;2.95;;;1.90;;
10416;SDS011;62605;49.432;8.680;2023-04-29T12:41:53;3.50;;;1.90;;
10416;SDS011;62605;49.432;8.680;2023-04-29T12:44:22;2.42;;;2.20;;
10416;SDS011;62605;49.432;8.680;2023-04-29T12:46:49;2.20;;;2.00;;
10416;SDS011;62605;49.432;8.680;2023-04-29T12:49:18;2.80;;;1.92;;
10416;SDS011;62605;49.432;8.680;2023-04-29T12:51:45;2.78;;;1.92;;
10416;SDS011;62605;49.432;8.680;2023-04-29T12:54:12;3.28;;;2.40;;
10416;SDS011;62605;49.432;8.680;2023-04-29T12:56:41;6.30;;;2.70;;
10416;SDS011;62605;49.432;8.680;2023-04-29T12:59:08;4.03;;;2.65;;
10416;SDS011;62605;49.432;8.680;2023-04-29T13:01:36;3.60;;;2.28;;
10416;SDS011;62605;49.432;8.680;2023-04-29T13:04:03;3.40;;;2.25;;
10416;SDS011;62605;49.432;8.680;2023-04-29T13:06:32;4.35;;;2.45;;
10416;SDS011;62605;49.432;8.680;2023-04-29T13:09:03;4.68;;;2.33;;
10416;SDS011;62605;49.432;8.680;2023-04-29T13:11:31;2.90;;;2.40;;
10416;SDS011;62605;49.432;8.680;2023-04-29T13:13:59;3.08;;;2.33;;
10416;SDS011;62605;49.432;8.680;2023-04-29T13:16:26;2.67;;;2.10;;
10416;SDS011;62605;49.432;8.680;2023-04-29T13:18:53;4.75;;;2.83;;
10416;SDS011;62605;49.432;8.680;2023-04-29T13:21:21;4.32;;;2.60;;
10416;SDS011;62605;49.432;8.680;2023-04-29T13:23:48;2.90;;;2.50;;
10416;SDS011;62605;49.432;8.680;2023-04-29T13:26:16;3.88;;;2.60;;
10416;SDS011;62605;49.432;8.680;2023-04-29T13:28:43;3.47;;;2.88;;
10416;SDS011;62605;49.432;8.680;2023-04-29T13:31:12;3.08;;;2.42;;
10416;SDS011;62605;49.432;8.680;2023-04-29T13:33:39;4.13;;;2.45;;
10416;SDS011;62605;49.432;8.680;2023-04-29T13:36:07;2.78;;;2.40;;
10416;SDS011;62605;49.432;8.680;2023-04-29T13:38:34;3.33;;;2.40;;
10416;SDS011;62605;49.432;8.680;2023-04-29T13:41:01;3.22;;;2.65;;
10416;SDS011;62605;49.432;8.680;2023-04-29T13:43:28;2.97;;;2.63;;
10416;SDS011;62605;49.432;8.680;2023-04-29T13:45:55;3.40;;;2.67;;
10416;SDS011;62605;49.432;8.680;2023-04-29T13:48:24;3.92;;;2.72;;
10416;SDS011;62605;49.432;8.680;2023-04-29T13:50:51;2.95;;;2.30;;
10416;SDS011;62605;49.432;8.680;2023-04-29T13:53:19;5.30;;;2.60;;
10416;SDS011;62605;49.432;8.680;2023-04-29T13:55:46;3.05;;;2.72;;
10416;SDS011;62605;49.432;8.680;2023-04-29T13:58:13;4.07;;;2.25;;
10416;SDS011;62605;49.432;8.680;2023-04-29T14:00:41;2.63;;;2.35;;
10416;SDS011;62605;49.432;8.680;2023-04-29T14:03:08;3.10;;;2.42;;
10416;SDS011;62605;49.432;8.680;2023-04-29T14:05:37;3.75;;;2.47;;
10416;SDS011;62605;49.432;8.680;2023-04-29T14:08:05;3.45;;;2.50;;
10416;SDS011;62605;49.432;8.680;2023-04-29T14:10:32;3.38;;;2.30;;
10416;SDS011;62605;49.432;8.680;2023-04-29T14:13:00;3.25;;;2.15;;
10416;SDS011;62605;49.432;8.680;2023-04-29T14:15:27;3.90;;;2.70;;
10416;SDS011;62605;49.432;8.680;2023-04-29T14:17:54;3.38;;;2.28;;
10416;SDS011;62605;49.432;8.680;2023-04-29T14:20:21;3.50;;;2.33;;
10416;SDS011;62605;49.432;8.680;2023-04-29T14:22:50;4.28;;;2.17;;
10416;SDS011;62605;49.432;8.680;2023-04-29T14:25:17;3.67;;;2.67;;
10416;SDS011;62605;49.432;8.680;2023-04-29T14:27:44;3.40;;;2.47;;
10416;SDS011;62605;49.432;8.680;2023-04-29T14:30:13;3.15;;;2.33;;
10416;SDS011;62605;49.432;8.680;2023-04-29T14:32:40;3.00;;;2.70;;
10416;SDS011;62605;49.432;8.680;2023-04-29T14:35:07;3.35;;;2.50;;
10416;SDS011;62605;49.432;8.680;2023-04-29T14:37:35;3.03;;;2.40;;
10416;SDS011;62605;49.432;8.680;2023-04-29T14:40:04;2.90;;;2.30;;
10416;SDS011;62605;49.432;8.680;2023-04-29T14:42:32;3.53;;;2.40;;
10416;SDS011;62605;49.432;8.680;2023-04-29T14:44:59;5.30;;;2.80;;
10416;SDS011;62605;49.432;8.680;2023-04-29T14:47:25;4.40;;;2.90;;
10416;SDS011;62605;49.432;8.680;2023-04-29T14:49:53;3.65;;;2.70;;
10416;SDS011;62605;49.432;8.680;2023-04-29T14:52:20;3.28;;;2.33;;
10416;SDS011;62605;49.432;8.680;2023-04-29T14:54:47;3.50;;;2.67;;
10416;SDS011;62605;49.432;8.680;2023-04-29T14:57:17;2.92;;;2.53;;
10416;SDS011;62605;49.432;8.680;2023-04-29T14:59:44;4.63;;;2.75;;